This is the latest recevied weather packets stored in our database for station/object TVARMINN. If no packets are shown the sender has not sent any weather packets the latest 10 day(s).
| Time | Temp. | Humidity | Pressure | Rain* | Wind** | Luminosity | Snow |
|---|---|---|---|---|---|---|---|
| 1777714026 | 8.33° C | 74% | 1012.1 hPa | 0 mm | - | - | - |
| 1777712826 | 9.44° C | 70% | 1012.2 hPa | 0 mm | - | - | - |
| 1777711626 | 10° C | 69% | 1012.1 hPa | 0 mm | - | - | - |
| 1777710426 | 10° C | 68% | 1012.2 hPa | 0 mm | - | - | - |
| 1777709226 | 10.56° C | 67% | 1012.1 hPa | 0 mm | - | - | - |
| 1777708026 | 10.56° C | 69% | 1012.4 hPa | 0 mm | - | - | - |
| 1777706825 | 10° C | 71% | 1012.4 hPa | 0 mm | - | - | - |
| 1777705625 | 9.44° C | 73% | 1012.3 hPa | 0 mm | - | - | - |
| 1777704425 | 10° C | 71% | 1012.4 hPa | 0 mm | - | - | - |
| 1777703225 | 10° C | 72% | 1012.4 hPa | 0 mm | - | - | - |
| 1777702025 | 8.33° C | 76% | 1012.5 hPa | 0 mm | - | - | - |
| 1777700825 | 8.89° C | 76% | 1012.5 hPa | 0 mm | - | - | - |
| 1777699625 | 8.89° C | 76% | 1012.5 hPa | 0 mm | - | - | - |
| 1777698425 | 8.33° C | 78% | 1012.5 hPa | 0 mm | - | - | - |
| 1777697225 | 7.78° C | 80% | 1012.5 hPa | 0 mm | - | - | - |
| 1777696025 | 8.33° C | 80% | 1012.5 hPa | 0 mm | - | - | - |
| 1777694825 | 6.67° C | 89% | 1012.7 hPa | 0 mm | - | - | - |
| 1777693625 | 5.56° C | 93% | 1012.6 hPa | 0 mm | - | - | - |
| 1777692424 | 4.44° C | 95% | 1012.6 hPa | 0 mm | - | - | - |
| 1777691225 | 3.89° C | 96% | 1012.7 hPa | 0 mm | - | - | - |
| 1777690025 | 3.89° C | 96% | 1012.8 hPa | 0 mm | - | - | - |
| 1777688825 | 3.33° C | 98% | 1012.8 hPa | 0 mm | - | - | - |
| 1777687625 | 3.33° C | 96% | 1013 hPa | 0 mm | - | - | - |
| 1777686424 | 3.89° C | 96% | 1013 hPa | 0 mm | - | - | - |
| 1777685225 | 3.89° C | 96% | 1013 hPa | 0 mm | - | - | - |
* Rain latest hour (hover to see other rain measurements)
** Current wind speed in m/s (hover to see current wind gust speed)